Volta Redonda, Brazil
Current Conditions -  °F | °C
As of 8:00 AM on Monday 20 Oct 2014 (Local Time) from SBSC Reporting Station
Broken Clouds Broken Clouds  
Wind Chill: 79°   Ceiling: 10000
Heat Index: 81°   Visibility: 6mi
Dew Point: 68°   Wind: 18mph
Humidity: 69%   Direction: 30°NNE
Pressure: 29.83"   Gusts: NA
Location:  22.51°S, 44.12°W
Report Text: SBSC 201100Z 03016KT 9999 FEW045 BKN100 26/20 Q1010
Loading
Personal Weather Stations






























Interactive Weather Map
Tropical Storm Tracking
New forecast layout! Learn more

10-Day Weather Forecast

Advertisements
Track Severe Weather on mobile